Nearby METAR Reports

 

KEWR - Newark, New Jersey, USA
Distance from station: NW 15mi, 25km
Updated: Fri, 20-Jul-2018 7:51am EDT
Partly cloudy
Partly cloudy
 Wind from WNW
Wind: WNW 3 mph , 6 km/h
Temperature: 73°F , 23°C
Dew Point: 64°F , 18°C
Humidity: 74%
Barometer: 30.16 inHg , 1021.3 hPa
Clouds: Partly cloudy
Visibility: 10 miles , 16 km
Cloud details: Partly cloudy 25000 ft
2018/07/20 11:51 KEWR 201151Z 30003KT 10SM SCT250 23/18 A3016 RMK AO2 SLP211 T02330183 10233 20194 51009
KJFK - Nyc/Jfk Arpt, New York, USA
Distance from station: NE 15mi, 25km
Updated: Fri, 20-Jul-2018 7:51am EDT
Few Clouds
Few Clouds
 Wind from ENE
Wind: ENE 3 mph , 6 km/h
Temperature: 73°F , 23°C
Dew Point: 66°F , 19°C
Humidity: 78%
Barometer: 30.17 inHg , 1021.7 hPa
Clouds: Few Clouds
Visibility: 10 miles , 16 km
Cloud details: Few Clouds 1500 ft
Few Clouds 35000 ft
2018/07/20 11:51 KJFK 201151Z 07003KT 10SM FEW015 FEW350 23/19 A3017 RMK AO2 SLP215 T02330194 10233 20189 51009
 
KLDJ - Linden, New Jersey, USA
Distance from station: WNW 15mi, 25km
Updated: Fri, 13-Jul-2018 10:15am EDT
NOT Current
Clear
Clear
 Wind from calm
Wind: Calm
Temperature: 79°F , 26°C
Dew Point: 57°F , 14°C
Humidity: 48%
Barometer: 30.25 inHg , 1024.4 hPa
Clouds: Clear
Visibility: 10 miles , 16 km
2018/07/13 14:15 KLDJ 131415Z AUTO 00000KT 10SM CLR 26/14 A3025 RMK AO2 T02640138
KNYC - Nyc/Central Park, New York, USA
Distance from station: N 20mi, 32km
Updated: Fri, 20-Jul-2018 7:51am EDT
Clear
Clear
 Wind from calm
Wind: Calm
Temperature: 72°F , 22°C
Dew Point: 64°F , 18°C
Humidity: 78%
Barometer: 30.19 inHg , 1022.4 hPa
Clouds: Clear
Visibility: 10 miles , 16 km
2018/07/20 11:51 KNYC 201151Z AUTO 00000KT 10SM CLR 22/18 A3019 RMK AO2 SLP212 T02220178 10222 20206 51009 $
 
KLGA - Nyc/La Guardia, New York, USA
Distance from station: NNE 21mi, 33km
Updated: Fri, 20-Jul-2018 7:51am EDT
Few Clouds
Few Clouds
 Wind from ENE
Wind: ENE 8 mph , 13 km/h
Temperature: 72°F , 22°C
Dew Point: 64°F , 18°C
Humidity: 78%
Barometer: 30.16 inHg , 1021.3 hPa
Clouds: Few Clouds
Visibility: 10 miles , 16 km
Cloud details: Few Clouds 25000 ft
2018/07/20 11:51 KLGA 201151Z 06007KT 10SM FEW250 22/18 A3016 RMK AO2 SLP211 T02220183 10228 20211 52010 $
KBLM - Belmar/Farmdale, New Jersey, USA
Distance from station: SSW 24mi, 38km
Updated: Fri, 20-Jul-2018 7:56am EDT
Clear
Clear
 Wind from NNW
Wind: NNW 5 mph , 7 km/h
Temperature: 72°F , 22°C
Dew Point: 64°F , 18°C
Humidity: 78%
Barometer: 30.17 inHg , 1021.7 hPa
Clouds: Clear
Visibility: 10 miles , 16 km
2018/07/20 11:56 KBLM 201156Z AUTO 34004KT 10SM CLR 22/18 A3017 RMK AO2 SLP219 7//// T02220183 10228 20167 51010
 
KTEB - Teterboro, New Jersey, USA
Distance from station: N 25mi, 41km
Updated: Fri, 20-Jul-2018 7:51am EDT
Clear
Clear
 Wind from E
Wind: E 3 mph , 6 km/h
Temperature: 72°F , 22°C
Dew Point: 64°F , 18°C
Humidity: 78%
Barometer: 30.15 inHg , 1021 hPa
Clouds: Clear
Visibility: 10 miles , 16 km
2018/07/20 11:51 KTEB 201151Z 09003KT 10SM CLR 22/18 A3015 RMK AO2 SLP210 T02170178 10217 20189 51009
KMMU - Morristown Muni, New Jersey, USA
Distance from station: NW 29mi, 47km
Updated: Fri, 20-Jul-2018 7:45am EDT
Clear
Clear
 Wind from calm
Wind: Calm
Temperature: 66°F , 19°C
Dew Point: 63°F , 17°C
Humidity: 88%
Barometer: 30.17 inHg , 1021.7 hPa
Clouds: Clear
Visibility: 10 miles , 16 km
2018/07/20 11:45 KMMU 201145Z 00000KT 10SM SKC 19/17 A3017
 
KCDW - Caldwell, New Jersey, USA
Distance from station: NNW 30mi, 49km
Updated: Fri, 20-Jul-2018 7:53am EDT
Clear
Clear
 Wind from calm
Wind: Calm
Temperature: 68°F , 20°C
Dew Point: 63°F , 17°C
Humidity: 83%
Barometer: 30.17 inHg , 1021.7 hPa
Clouds: Clear
Visibility: 10 miles , 16 km
2018/07/20 11:53 KCDW 201153Z 00000KT 10SM CLR 20/17 A3017 RMK AO2 SLP222 T02000172 10200 20156 51007
KFRG - Farmingdale, New York, USA
Distance from station: ENE 35mi, 56km
Updated: Fri, 20-Jul-2018 7:53am EDT
Clear
Clear
 Wind from calm
Wind: Calm
Temperature: 73°F , 23°C
Dew Point: 66°F , 19°C
Humidity: 78%
Barometer: 30.16 inHg , 1021.3 hPa
Clouds: Clear
Visibility: 10 miles , 16 km
2018/07/20 11:53 KFRG 201153Z 00000KT 10SM CLR 23/19 A3016 RMK AO2 SLP214 T02280189 10228 20172 52007
 
KSMQ - Somerville, New Jersey, USA
Distance from station: WNW 36mi, 58km
Updated: Fri, 20-Jul-2018 7:53am EDT
Clear
Clear
 
Temperature: 66°F , 19°C
Dew Point: 64°F , 18°C
Humidity: 94%
Barometer: 30.15 inHg , 1021 hPa
Clouds: Clear
Visibility: 10 miles , 16 km
2018/07/20 11:53 KSMQ 201153Z AUTO 10SM CLR 19/18 A3015 RMK AO2 SLP208 T01890178 10189 20139 51007
KNEL - Lakehurst Nas, New Jersey, USA
Distance from station: SSW 38mi, 61km
Updated: Fri, 20-Jul-2018 8:00am EDT
Few Clouds
Few Clouds
 Wind from calm
Wind: Calm
Temperature: 70°F , 21°C
Dew Point: 66°F , 19°C
Humidity: 88%
Barometer: 30.15 inHg , 1021 hPa
Clouds: Few Clouds
Visibility: 10 miles , 16 km
Cloud details: Few Clouds 26000 ft
2018/07/20 12:00 KNEL 201200Z 00000KT 10SM FEW260 21/19 A3015 RMK AO2 SLP207 6//// 7//// T02110189 53007 PNO
 
KHPN - White Plains, New York, USA
Distance from station: NNE 42mi, 68km
Updated: Fri, 20-Jul-2018 7:56am EDT
Clear
Clear
 Wind from calm
Wind: Calm
Temperature: 70°F , 21°C
Dew Point: 63°F , 17°C
Humidity: 78%
Barometer: 30.17 inHg , 1021.7 hPa
Clouds: Clear
Visibility: 10 miles , 16 km
2018/07/20 11:56 KHPN 201156Z 00000KT 10SM CLR 21/17 A3017 RMK AO2 SLP212 T02060172 10206 20161 51010
KMJX - Toms River, New Jersey, USA
Distance from station: SSW 42mi, 68km
Updated: Fri, 20-Jul-2018 7:56am EDT
Clear
Clear
 Wind from calm
Wind: Calm
Temperature: 70°F , 21°C
Dew Point: 64°F , 18°C
Humidity: 83%
Barometer: 30.16 inHg , 1021.3 hPa
Clouds: Clear
Visibility: 10 miles , 16 km
2018/07/20 11:56 KMJX 201156Z AUTO 00000KT 10SM CLR 21/18 A3016 RMK AO2 SLP219 T02110178 10217 20117 51010
 
KWRI - Wrightst/Mcguire, New Jersey, USA
Distance from station: SW 45mi, 73km
Updated: Fri, 20-Jul-2018 7:56am EDT
Clear
Clear
 Wind from E
Wind: E 3 mph , 6 km/h
Temperature: 70°F , 21°C
Dew Point: 64°F , 18°C
Humidity: 83%
Barometer: 30.13 inHg , 1020.3 hPa
Clouds: Clear
Visibility: 10 miles , 16 km
2018/07/20 11:56 KWRI 201156Z AUTO 09003KT 10SM CLR 21/18 A3013 RMK AO2 SLP202 T02100184 10210 20150 52007 $
KTTN - Trenton, New Jersey, USA
Distance from station: WSW 46mi, 73km
Updated: Fri, 20-Jul-2018 7:53am EDT
Clear
Clear
 Wind from calm
Wind: Calm
Temperature: 72°F , 22°C
Dew Point: 66°F , 19°C
Humidity: 83%
Barometer: 30.15 inHg , 1021 hPa
Clouds: Clear
Visibility: 10 miles , 16 km
2018/07/20 11:53 KTTN 201153Z 00000KT 10SM CLR 22/19 A3015 RMK AO2 SLP202 T02220189 10222 20172 51007